Unlu-5 — TCON5 — position and weather

sailwx.info

Track history (hours):
 
Tides and Currents Weather Stations Pressure Air Temp Water Temp Dewpoint Dewpoint Depression Visibility Wind Speed Wind Dir Waves Ship Positions

Unlu-5

Last reported at 2016-May-23 01:34 UTC. Time now 2016-May-29 17:19 UTC.
Position N 37°52' E 015°60'.

Length 99 m; draft 4 m.

Type: Ship. MMSI: 271000854.

Date/timePositionNaut miles runAvg speedWind from/ knotsBaromVisibWave heightAir tempDewpointWater temp
2016-May-23 01:34N 37°52' E 015°60'8 7.9
2016-May-23 00:30N 37°52' E 015°49'7 7.5
2016-May-22 23:34N 37°54' E 015°41'8 7.8
2016-May-22 22:33N 37°60' E 015°34'9 8.5
2016-May-22 21:33N 38°08' E 015°35'8 8.3
2016-May-22 20:33N 38°16' E 015°40'8 7.7
2016-May-22 19:33N 38°22' E 015°35'9 8.3
2016-May-22 18:32N 38°28' E 015°27'8 8.0
2016-May-22 17:33N 38°34' E 015°20'8 7.9
2016-May-22 16:32N 38°40' E 015°13'11 7.8
2016-May-22 15:07N 38°48' E 015°03'5 8.0
2016-May-22 14:33N 38°51' E 014°60'9 8.3
2016-May-22 13:27N 38°58' E 014°52'7 8.1
2016-May-22 12:33N 39°03' E 014°45'8 8.1
2016-May-22 11:33N 39°09' E 014°38'10 8.0
2016-May-22 10:21N 39°16' E 014°29'6 8.0
2016-May-22 09:34N 39°20' E 014°24'8 8.1
2016-May-22 08:31N 39°27' E 014°16'9 8.1
2016-May-22 07:25N 39°33' E 014°08'7 8.1
2016-May-22 06:32N 39°39' E 014°02'8 8.0
2016-May-22 05:34N 39°44' E 013°55'8 7.9
2016-May-22 04:33N 39°50' E 013°49'8 7.8
2016-May-22 03:34N 39°56' E 013°42'8 7.7
2016-May-22 02:34N 40°02' E 013°35'8 7.7
2016-May-22 01:34N 40°08' E 013°28'8 7.8
2016-May-22 00:34N 40°13' E 013°21'9 7.7
2016-May-21 23:23N 40°20' E 013°13'22 7.9
2016-May-21 20:32N 40°36' E 012°53'8 8.1
2016-May-21 19:33N 40°42' E 012°47'8 8.4
2016-May-21 18:34N 40°49' E 012°39'9 8.5
2016-May-21 17:34N 40°55' E 012°31'9 8.5
2016-May-21 16:33N 41°00' E 012°23'8 8.3
2016-May-21 15:34N 41°06' E 012°14'8 8.0
2016-May-21 14:33N 41°11' E 012°06'73 8.1
2016-May-21 05:33N 42°03' E 010°58'10 8.2
2016-May-21 04:17N 42°10' E 010°48'17 8.0
2016-May-21 02:08N 42°23' E 010°31'21 8.0
2016-May-20 23:33N 42°37' E 010°12'8 8.0
2016-May-20 22:33N 42°42' E 010°03'8 7.9
2016-May-20 21:32N 42°47' E 009°55'7 7.7
2016-May-20 20:34N 42°53' E 009°48'8 7.8
2016-May-20 19:33N 42°58' E 009°40'8 8.0
2016-May-20 18:34N 43°05' E 009°34'8 8.0
2016-May-20 17:34N 43°11' E 009°28'8 7.9
2016-May-20 16:33N 43°17' E 009°20'8 7.9
2016-May-20 15:33N 43°23' E 009°13'8 7.8
2016-May-20 14:33N 43°29' E 009°06'8 7.9
2016-May-20 13:33N 43°36' E 009°00'8 8.0
2016-May-20 12:34N 43°42' E 008°54'8 8.3
2016-May-20 11:34N 43°49' E 008°47'8 8.1
2016-May-20 10:34N 43°55' E 008°41'8 7.9
2016-May-20 09:33N 44°02' E 008°34'0 0.5
2016-May-20 08:34N 44°02' E 008°35'1 0.5
2016-May-20 07:32N 44°03' E 008°35'1 0.7
2016-May-20 06:34N 44°03' E 008°36'1 0.9
2016-May-20 05:34N 44°04' E 008°36'1 0.7
2016-May-20 04:33N 44°04' E 008°37'1 0.7
2016-May-20 03:33N 44°05' E 008°37'1 1.0
2016-May-20 02:33N 44°06' E 008°37'1 1.1
2016-May-20 01:34N 44°07' E 008°37'1 1.1
2016-May-20 00:34N 44°08' E 008°36'1 1.1
2016-May-19 23:34N 44°09' E 008°36'1 1.4
2016-May-19 22:31N 44°11' E 008°36'1 1.3
2016-May-19 21:34N 44°12' E 008°37'1 0.9
2016-May-19 20:34N 44°13' E 008°37'1 1.0
2016-May-19 19:34N 44°14' E 008°37'1 1.0
2016-May-19 18:33N 44°15' E 008°37'1 0.7
2016-May-19 17:34N 44°15' E 008°36'2 2.0
2016-May-19 16:34N 44°17' E 008°36'2 2.3
2016-May-19 15:31N 44°19' E 008°36'1 0.8
2016-May-19 14:34N 44°19' E 008°37'1 0.6
2016-May-19 13:33N 44°18' E 008°37'1 0.7
2016-May-19 12:33N 44°18' E 008°38'0 0.5
2016-May-19 11:34N 44°18' E 008°39'1 0.5
2016-May-19 10:33N 44°18' E 008°39'1 0.6
2016-May-19 09:31N 44°17' E 008°39'1 1.1
2016-May-19 08:34N 44°16' E 008°38'5 4.6
2016-May-19 07:34N 44°14' E 008°44'1 1.2
2016-May-19 06:33N 44°13' E 008°45'2 1.9
2016-May-19 05:34N 44°15' E 008°43'3 2.9
2016-May-19 04:34N 44°17' E 008°41'1 1.3
2016-May-19 03:33N 44°16' E 008°41'1 1.2
2016-May-19 02:32N 44°15' E 008°41'1 1.1
2016-May-19 01:33N 44°14' E 008°42'1 1.0
2016-May-19 00:33N 44°13' E 008°42'1 1.1
2016-May-18 23:33N 44°12' E 008°43'1 1.0
2016-May-18 22:34N 44°11' E 008°43'1 1.2
2016-May-18 21:34N 44°12' E 008°44'4 3.9
2016-May-18 20:34N 44°16' E 008°44'0 0.4
2016-May-18 19:34N 44°16' E 008°43'0 0.3
2016-May-18 18:34N 44°15' E 008°43'0 0.2
2016-May-18 17:34N 44°15' E 008°43'0 0.2
2016-May-18 16:34N 44°15' E 008°43'0 0.2
2016-May-18 15:34N 44°15' E 008°43'0 0.2
2016-May-18 14:33N 44°15' E 008°43'0 0.3
2016-May-18 13:34N 44°15' E 008°43'0 0.2
2016-May-18 12:33N 44°14' E 008°43'0 0.2
2016-May-18 11:34N 44°14' E 008°43'0 0.3
2016-May-18 10:33N 44°14' E 008°43'0 0.3
2016-May-18 09:33N 44°14' E 008°44'0 0.2
2016-May-18 08:33N 44°13' E 008°44'0 0.3
2016-May-18 07:34N 44°13' E 008°44'0 0.4
2016-May-18 06:33N 44°13' E 008°45'0 0.5
2016-May-18 05:33N 44°13' E 008°45'1 0.5
2016-May-18 04:34N 44°13' E 008°46'0 0.4
2016-May-18 03:34N 44°12' E 008°46'0 0.3
2016-May-18 02:34N 44°12' E 008°46'0 0.4
2016-May-18 01:34N 44°12' E 008°47'1 0.5
2016-May-18 00:33N 44°11' E 008°47'1 0.6
2016-May-17 23:34N 44°11' E 008°48'1 0.6
2016-May-17 22:33N 44°11' E 008°49'0 0.4
2016-May-17 21:34N 44°11' E 008°49'0 0.4
2016-May-17 20:33N 44°11' E 008°50'0 0.2
2016-May-17 19:34N 44°11' E 008°50'0 0.1
2016-May-17 18:34N 44°11' E 008°50'5 5.4
2016-May-17 17:33N 44°16' E 008°52'7 7.1
2016-May-17 16:31N 44°23' E 008°55'0 0.0
2016-May-17 15:31N 44°23' E 008°55'0 0.0
2016-May-17 14:31N 44°23' E 008°55'0 0.0
2016-May-17 13:31N 44°23' E 008°55'0 0.0
2016-May-17 12:31N 44°23' E 008°55'0 0.0
2016-May-17 11:31N 44°23' E 008°55'0 0.0
2016-May-17 10:31N 44°23' E 008°55'0 0.2
2016-May-17 09:31N 44°23' E 008°55'0 0.0
2016-May-17 08:28N 44°23' E 008°55'0 0.0
2016-May-17 07:22N 44°23' E 008°55'0 0.1
2016-May-17 06:28N 44°23' E 008°55'0 0.0
2016-May-17 05:25N 44°23' E 008°55'0 0.1
2016-May-17 04:28N 44°23' E 008°55'0 0.1
2016-May-17 03:31N 44°23' E 008°55'0 0.1
2016-May-17 02:28N 44°23' E 008°55'0 0.0
2016-May-17 01:31N 44°23' E 008°55'0 0.0
2016-May-17 00:31N 44°23' E 008°55'0 0.1
2016-May-16 23:31N 44°23' E 008°55'0 0.0
2016-May-16 22:31N 44°23' E 008°55'0 0.0
2016-May-16 21:31N 44°23' E 008°55'0 0.0
2016-May-16 20:31N 44°23' E 008°55'0 0.0
2016-May-16 19:31N 44°23' E 008°55'0 0.0
2016-May-16 18:31N 44°23' E 008°55'0 0.0
2016-May-16 17:31N 44°23' E 008°55'2 1.7
2016-May-16 16:32N 44°24' E 008°53'0 0.0
2016-May-16 15:32N 44°24' E 008°53'0 0.0
2016-May-16 14:32N 44°24' E 008°53'0 0.0
2016-May-16 13:32N 44°24' E 008°53'0 0.0
2016-May-16 12:32N 44°24' E 008°53'0 0.0
2016-May-16 11:32N 44°24' E 008°53'0 0.0
2016-May-16 10:32N 44°24' E 008°53'0 0.0
2016-May-16 09:32N 44°24' E 008°53'0 0.0
2016-May-16 08:32N 44°24' E 008°53'0 0.0
2016-May-16 07:32N 44°24' E 008°53'0 0.0
2016-May-16 06:32N 44°24' E 008°53'0 0.0
2016-May-16 05:32N 44°24' E 008°53'0 0.0
2016-May-16 04:26N 44°24' E 008°53'0 0.0
2016-May-16 03:29N 44°24' E 008°53'0 0.0
2016-May-16 02:29N 44°24' E 008°53'0 0.0
2016-May-16 01:32N 44°24' E 008°53'0 0.0
2016-May-16 00:32N 44°24' E 008°53'0 0.0
2016-May-15 23:29N 44°24' E 008°53'0 0.0
2016-May-15 22:29N 44°24' E 008°53'0 0.0
2016-May-15 21:32N 44°24' E 008°53'0 0.0
2016-May-15 20:32N 44°24' E 008°53'0 0.0
2016-May-15 19:32N 44°24' E 008°53'0 0.0
2016-May-15 18:32N 44°24' E 008°53'0 0.0
2016-May-15 17:32N 44°24' E 008°53'0 0.0
2016-May-15 16:32N 44°24' E 008°53'0 0.0
2016-May-15 15:32N 44°24' E 008°53'0 0.0
2016-May-15 14:32N 44°24' E 008°53'0 0.0
2016-May-15 13:26N 44°24' E 008°53'0 0.0
2016-May-15 12:32N 44°24' E 008°53'0 0.0
2016-May-15 11:29N 44°24' E 008°53'0 0.0
2016-May-15 10:29N 44°24' E 008°53'0 0.0
2016-May-15 09:32N 44°24' E 008°53'0 0.0
2016-May-15 08:32N 44°24' E 008°53'0 0.0
2016-May-15 07:32N 44°24' E 008°53'0 0.0
2016-May-15 06:32N 44°24' E 008°53'0 0.0
2016-May-15 05:32N 44°24' E 008°53'0 0.0
2016-May-15 04:32N 44°24' E 008°53'0 0.0
2016-May-15 03:32N 44°24' E 008°53'0 0.0
2016-May-15 02:32N 44°24' E 008°53'0 0.0
2016-May-15 01:32N 44°24' E 008°53'0 0.0
2016-May-15 00:26N 44°24' E 008°53'0 0.0
2016-May-14 23:26N 44°24' E 008°53'0 0.0
2016-May-14 22:26N 44°24' E 008°53'0 0.0
2016-May-14 21:29N 44°24' E 008°53'0 0.0
2016-May-14 20:29N 44°24' E 008°53'0 0.0
2016-May-14 19:32N 44°24' E 008°53'0 0.0
2016-May-14 18:32N 44°24' E 008°53'0 0.0
2016-May-14 17:32N 44°24' E 008°53'0 0.0
2016-May-14 16:32N 44°24' E 008°53'0 0.0
2016-May-14 15:32N 44°24' E 008°53'0 0.0
2016-May-14 14:32N 44°24' E 008°53'0 0.0
2016-May-14 13:32N 44°24' E 008°53'0 0.0
2016-May-14 12:32N 44°24' E 008°53'0 0.0
2016-May-14 11:32N 44°24' E 008°53'0 0.0
2016-May-14 10:32N 44°24' E 008°53'0 0.0
2016-May-14 09:26N 44°24' E 008°53'0 0.0
2016-May-14 08:32N 44°24' E 008°53'0 0.0
2016-May-14 07:29N 44°24' E 008°53'0 0.0
2016-May-14 06:32N 44°24' E 008°53'0 0.0
2016-May-14 05:29N 44°24' E 008°53'0 0.0
2016-May-14 04:32N 44°24' E 008°53'0 0.0
2016-May-14 03:32N 44°24' E 008°53'0 0.0
2016-May-14 02:32N 44°24' E 008°53'0 0.0
2016-May-14 01:32N 44°24' E 008°53'0 0.0
2016-May-14 00:32N 44°24' E 008°53'0 0.0
2016-May-13 23:32N 44°24' E 008°53'0 0.0
2016-May-13 22:32N 44°24' E 008°53'0 0.0
2016-May-13 21:32N 44°24' E 008°53'0 0.0
2016-May-13 20:26N 44°24' E 008°53'0 0.0
2016-May-13 19:29N 44°24' E 008°53'0 0.0
2016-May-13 18:29N 44°24' E 008°53'0 0.0
2016-May-13 17:32N 44°24' E 008°53'0 0.0
2016-May-13 16:32N 44°24' E 008°53'0 0.0
2016-May-13 15:32N 44°24' E 008°53'0 0.0
2016-May-13 14:32N 44°24' E 008°53'0 0.0
2016-May-13 13:32N 44°24' E 008°53'0 0.0
2016-May-13 12:32N 44°24' E 008°53'0 0.0
2016-May-13 11:32N 44°24' E 008°53'0 0.0
2016-May-13 10:32N 44°24' E 008°53'0 0.0
2016-May-13 09:32N 44°24' E 008°53'0 0.0
2016-May-13 08:32N 44°24' E 008°53'0 0.0
2016-May-13 07:32N 44°24' E 008°53'0 0.0
2016-May-13 06:32N 44°24' E 008°53'0 0.0
2016-May-13 04:29N 44°24' E 008°53'0 0.0
2016-May-13 03:29N 44°24' E 008°53'0 0.0
2016-May-13 02:29N 44°24' E 008°53'  
Track history (hours):
 
Tides and Currents Weather Stations Pressure Air Temp Water Temp Dewpoint Dewpoint Depression Visibility Wind Speed Wind Dir Waves Ship Positions

Unlu-5

Last reported at 2016-May-23 01:34 UTC. Time now 2016-May-29 17:19 UTC.
Position N 37°52' E 015°60'.

Length 99 m; draft 4 m.

Type: Ship. MMSI: 271000854.

Date/timePositionNaut miles runAvg speedWind from/ knotsBaromVisibWave heightAir tempDewpointWater temp
2016-May-23 01:34N 37°52' E 015°60'8 7.9
2016-May-23 00:30N 37°52' E 015°49'7 7.5
2016-May-22 23:34N 37°54' E 015°41'8 7.8
2016-May-22 22:33N 37°60' E 015°34'9 8.5
2016-May-22 21:33N 38°08' E 015°35'8 8.3
2016-May-22 20:33N 38°16' E 015°40'8 7.7
2016-May-22 19:33N 38°22' E 015°35'9 8.3
2016-May-22 18:32N 38°28' E 015°27'8 8.0
2016-May-22 17:33N 38°34' E 015°20'8 7.9
2016-May-22 16:32N 38°40' E 015°13'11 7.8
2016-May-22 15:07N 38°48' E 015°03'5 8.0
2016-May-22 14:33N 38°51' E 014°60'9 8.3
2016-May-22 13:27N 38°58' E 014°52'7 8.1
2016-May-22 12:33N 39°03' E 014°45'8 8.1
2016-May-22 11:33N 39°09' E 014°38'10 8.0
2016-May-22 10:21N 39°16' E 014°29'6 8.0
2016-May-22 09:34N 39°20' E 014°24'8 8.1
2016-May-22 08:31N 39°27' E 014°16'9 8.1
2016-May-22 07:25N 39°33' E 014°08'7 8.1
2016-May-22 06:32N 39°39' E 014°02'8 8.0
2016-May-22 05:34N 39°44' E 013°55'8 7.9
2016-May-22 04:33N 39°50' E 013°49'8 7.8
2016-May-22 03:34N 39°56' E 013°42'8 7.7
2016-May-22 02:34N 40°02' E 013°35'8 7.7
2016-May-22 01:34N 40°08' E 013°28'8 7.8
2016-May-22 00:34N 40°13' E 013°21'9 7.7
2016-May-21 23:23N 40°20' E 013°13'22 7.9
2016-May-21 20:32N 40°36' E 012°53'8 8.1
2016-May-21 19:33N 40°42' E 012°47'8 8.4
2016-May-21 18:34N 40°49' E 012°39'9 8.5
2016-May-21 17:34N 40°55' E 012°31'9 8.5
2016-May-21 16:33N 41°00' E 012°23'8 8.3
2016-May-21 15:34N 41°06' E 012°14'8 8.0
2016-May-21 14:33N 41°11' E 012°06'73 8.1
2016-May-21 05:33N 42°03' E 010°58'10 8.2
2016-May-21 04:17N 42°10' E 010°48'17 8.0
2016-May-21 02:08N 42°23' E 010°31'21 8.0
2016-May-20 23:33N 42°37' E 010°12'8 8.0
2016-May-20 22:33N 42°42' E 010°03'8 7.9
2016-May-20 21:32N 42°47' E 009°55'7 7.7
2016-May-20 20:34N 42°53' E 009°48'8 7.8
2016-May-20 19:33N 42°58' E 009°40'8 8.0
2016-May-20 18:34N 43°05' E 009°34'8 8.0
2016-May-20 17:34N 43°11' E 009°28'8 7.9
2016-May-20 16:33N 43°17' E 009°20'8 7.9
2016-May-20 15:33N 43°23' E 009°13'8 7.8
2016-May-20 14:33N 43°29' E 009°06'8 7.9
2016-May-20 13:33N 43°36' E 009°00'8 8.0
2016-May-20 12:34N 43°42' E 008°54'8 8.3
2016-May-20 11:34N 43°49' E 008°47'8 8.1
2016-May-20 10:34N 43°55' E 008°41'8 7.9
2016-May-20 09:33N 44°02' E 008°34'0 0.5
2016-May-20 08:34N 44°02' E 008°35'1 0.5
2016-May-20 07:32N 44°03' E 008°35'1 0.7
2016-May-20 06:34N 44°03' E 008°36'1 0.9
2016-May-20 05:34N 44°04' E 008°36'1 0.7
2016-May-20 04:33N 44°04' E 008°37'1 0.7
2016-May-20 03:33N 44°05' E 008°37'1 1.0
2016-May-20 02:33N 44°06' E 008°37'1 1.1
2016-May-20 01:34N 44°07' E 008°37'1 1.1
2016-May-20 00:34N 44°08' E 008°36'1 1.1
2016-May-19 23:34N 44°09' E 008°36'1 1.4
2016-May-19 22:31N 44°11' E 008°36'1 1.3
2016-May-19 21:34N 44°12' E 008°37'1 0.9
2016-May-19 20:34N 44°13' E 008°37'1 1.0
2016-May-19 19:34N 44°14' E 008°37'1 1.0
2016-May-19 18:33N 44°15' E 008°37'1 0.7
2016-May-19 17:34N 44°15' E 008°36'2 2.0
2016-May-19 16:34N 44°17' E 008°36'2 2.3
2016-May-19 15:31N 44°19' E 008°36'1 0.8
2016-May-19 14:34N 44°19' E 008°37'1 0.6
2016-May-19 13:33N 44°18' E 008°37'1 0.7
2016-May-19 12:33N 44°18' E 008°38'0 0.5
2016-May-19 11:34N 44°18' E 008°39'1 0.5
2016-May-19 10:33N 44°18' E 008°39'1 0.6
2016-May-19 09:31N 44°17' E 008°39'1 1.1
2016-May-19 08:34N 44°16' E 008°38'5 4.6
2016-May-19 07:34N 44°14' E 008°44'1 1.2
2016-May-19 06:33N 44°13' E 008°45'2 1.9
2016-May-19 05:34N 44°15' E 008°43'3 2.9
2016-May-19 04:34N 44°17' E 008°41'1 1.3
2016-May-19 03:33N 44°16' E 008°41'1 1.2
2016-May-19 02:32N 44°15' E 008°41'1 1.1
2016-May-19 01:33N 44°14' E 008°42'1 1.0
2016-May-19 00:33N 44°13' E 008°42'1 1.1
2016-May-18 23:33N 44°12' E 008°43'1 1.0
2016-May-18 22:34N 44°11' E 008°43'1 1.2
2016-May-18 21:34N 44°12' E 008°44'4 3.9
2016-May-18 20:34N 44°16' E 008°44'0 0.4
2016-May-18 19:34N 44°16' E 008°43'0 0.3
2016-May-18 18:34N 44°15' E 008°43'0 0.2
2016-May-18 17:34N 44°15' E 008°43'0 0.2
2016-May-18 16:34N 44°15' E 008°43'0 0.2
2016-May-18 15:34N 44°15' E 008°43'0 0.2
2016-May-18 14:33N 44°15' E 008°43'0 0.3
2016-May-18 13:34N 44°15' E 008°43'0 0.2
2016-May-18 12:33N 44°14' E 008°43'0 0.2
2016-May-18 11:34N 44°14' E 008°43'0 0.3
2016-May-18 10:33N 44°14' E 008°43'0 0.3
2016-May-18 09:33N 44°14' E 008°44'0 0.2
2016-May-18 08:33N 44°13' E 008°44'0 0.3
2016-May-18 07:34N 44°13' E 008°44'0 0.4
2016-May-18 06:33N 44°13' E 008°45'0 0.5
2016-May-18 05:33N 44°13' E 008°45'1 0.5
2016-May-18 04:34N 44°13' E 008°46'0 0.4
2016-May-18 03:34N 44°12' E 008°46'0 0.3
2016-May-18 02:34N 44°12' E 008°46'0 0.4
2016-May-18 01:34N 44°12' E 008°47'1 0.5
2016-May-18 00:33N 44°11' E 008°47'1 0.6
2016-May-17 23:34N 44°11' E 008°48'1 0.6
2016-May-17 22:33N 44°11' E 008°49'0 0.4
2016-May-17 21:34N 44°11' E 008°49'0 0.4
2016-May-17 20:33N 44°11' E 008°50'0 0.2
2016-May-17 19:34N 44°11' E 008°50'0 0.1
2016-May-17 18:34N 44°11' E 008°50'5 5.4
2016-May-17 17:33N 44°16' E 008°52'7 7.1
2016-May-17 16:31N 44°23' E 008°55'0 0.0
2016-May-17 15:31N 44°23' E 008°55'0 0.0
2016-May-17 14:31N 44°23' E 008°55'0 0.0
2016-May-17 13:31N 44°23' E 008°55'0 0.0
2016-May-17 12:31N 44°23' E 008°55'0 0.0
2016-May-17 11:31N 44°23' E 008°55'0 0.0
2016-May-17 10:31N 44°23' E 008°55'0 0.2
2016-May-17 09:31N 44°23' E 008°55'0 0.0
2016-May-17 08:28N 44°23' E 008°55'0 0.0
2016-May-17 07:22N 44°23' E 008°55'0 0.1
2016-May-17 06:28N 44°23' E 008°55'0 0.0
2016-May-17 05:25N 44°23' E 008°55'0 0.1
2016-May-17 04:28N 44°23' E 008°55'0 0.1
2016-May-17 03:31N 44°23' E 008°55'0 0.1
2016-May-17 02:28N 44°23' E 008°55'0 0.0
2016-May-17 01:31N 44°23' E 008°55'0 0.0
2016-May-17 00:31N 44°23' E 008°55'0 0.1
2016-May-16 23:31N 44°23' E 008°55'0 0.0
2016-May-16 22:31N 44°23' E 008°55'0 0.0
2016-May-16 21:31N 44°23' E 008°55'0 0.0
2016-May-16 20:31N 44°23' E 008°55'0 0.0
2016-May-16 19:31N 44°23' E 008°55'0 0.0
2016-May-16 18:31N 44°23' E 008°55'0 0.0
2016-May-16 17:31N 44°23' E 008°55'2 1.7
2016-May-16 16:32N 44°24' E 008°53'0 0.0
2016-May-16 15:32N 44°24' E 008°53'0 0.0
2016-May-16 14:32N 44°24' E 008°53'0 0.0
2016-May-16 13:32N 44°24' E 008°53'0 0.0
2016-May-16 12:32N 44°24' E 008°53'0 0.0
2016-May-16 11:32N 44°24' E 008°53'0 0.0
2016-May-16 10:32N 44°24' E 008°53'0 0.0
2016-May-16 09:32N 44°24' E 008°53'0 0.0
2016-May-16 08:32N 44°24' E 008°53'0 0.0
2016-May-16 07:32N 44°24' E 008°53'0 0.0
2016-May-16 06:32N 44°24' E 008°53'0 0.0
2016-May-16 05:32N 44°24' E 008°53'0 0.0
2016-May-16 04:26N 44°24' E 008°53'0 0.0
2016-May-16 03:29N 44°24' E 008°53'0 0.0
2016-May-16 02:29N 44°24' E 008°53'0 0.0
2016-May-16 01:32N 44°24' E 008°53'0 0.0
2016-May-16 00:32N 44°24' E 008°53'0 0.0
2016-May-15 23:29N 44°24' E 008°53'0 0.0
2016-May-15 22:29N 44°24' E 008°53'0 0.0
2016-May-15 21:32N 44°24' E 008°53'0 0.0
2016-May-15 20:32N 44°24' E 008°53'0 0.0
2016-May-15 19:32N 44°24' E 008°53'0 0.0
2016-May-15 18:32N 44°24' E 008°53'0 0.0
2016-May-15 17:32N 44°24' E 008°53'0 0.0
2016-May-15 16:32N 44°24' E 008°53'0 0.0
2016-May-15 15:32N 44°24' E 008°53'0 0.0
2016-May-15 14:32N 44°24' E 008°53'0 0.0
2016-May-15 13:26N 44°24' E 008°53'0 0.0
2016-May-15 12:32N 44°24' E 008°53'0 0.0
2016-May-15 11:29N 44°24' E 008°53'0 0.0
2016-May-15 10:29N 44°24' E 008°53'0 0.0
2016-May-15 09:32N 44°24' E 008°53'0 0.0
2016-May-15 08:32N 44°24' E 008°53'0 0.0
2016-May-15 07:32N 44°24' E 008°53'0 0.0
2016-May-15 06:32N 44°24' E 008°53'0 0.0
2016-May-15 05:32N 44°24' E 008°53'0 0.0
2016-May-15 04:32N 44°24' E 008°53'0 0.0
2016-May-15 03:32N 44°24' E 008°53'0 0.0
2016-May-15 02:32N 44°24' E 008°53'0 0.0
2016-May-15 01:32N 44°24' E 008°53'0 0.0
2016-May-15 00:26N 44°24' E 008°53'0 0.0
2016-May-14 23:26N 44°24' E 008°53'0 0.0
2016-May-14 22:26N 44°24' E 008°53'0 0.0
2016-May-14 21:29N 44°24' E 008°53'0 0.0
2016-May-14 20:29N 44°24' E 008°53'0 0.0
2016-May-14 19:32N 44°24' E 008°53'0 0.0
2016-May-14 18:32N 44°24' E 008°53'0 0.0
2016-May-14 17:32N 44°24' E 008°53'0 0.0
2016-May-14 16:32N 44°24' E 008°53'0 0.0
2016-May-14 15:32N 44°24' E 008°53'0 0.0
2016-May-14 14:32N 44°24' E 008°53'0 0.0
2016-May-14 13:32N 44°24' E 008°53'0 0.0
2016-May-14 12:32N 44°24' E 008°53'0 0.0
2016-May-14 11:32N 44°24' E 008°53'0 0.0
2016-May-14 10:32N 44°24' E 008°53'0 0.0
2016-May-14 09:26N 44°24' E 008°53'0 0.0
2016-May-14 08:32N 44°24' E 008°53'0 0.0
2016-May-14 07:29N 44°24' E 008°53'0 0.0
2016-May-14 06:32N 44°24' E 008°53'0 0.0
2016-May-14 05:29N 44°24' E 008°53'0 0.0
2016-May-14 04:32N 44°24' E 008°53'0 0.0
2016-May-14 03:32N 44°24' E 008°53'0 0.0
2016-May-14 02:32N 44°24' E 008°53'0 0.0
2016-May-14 01:32N 44°24' E 008°53'0 0.0
2016-May-14 00:32N 44°24' E 008°53'0 0.0
2016-May-13 23:32N 44°24' E 008°53'0 0.0
2016-May-13 22:32N 44°24' E 008°53'0 0.0
2016-May-13 21:32N 44°24' E 008°53'0 0.0
2016-May-13 20:26N 44°24' E 008°53'0 0.0
2016-May-13 19:29N 44°24' E 008°53'0 0.0
2016-May-13 18:29N 44°24' E 008°53'0 0.0
2016-May-13 17:32N 44°24' E 008°53'0 0.0
2016-May-13 16:32N 44°24' E 008°53'0 0.0
2016-May-13 15:32N 44°24' E 008°53'0 0.0
2016-May-13 14:32N 44°24' E 008°53'0 0.0
2016-May-13 13:32N 44°24' E 008°53'0 0.0
2016-May-13 12:32N 44°24' E 008°53'0 0.0
2016-May-13 11:32N 44°24' E 008°53'0 0.0
2016-May-13 10:32N 44°24' E 008°53'0 0.0
2016-May-13 09:32N 44°24' E 008°53'0 0.0
2016-May-13 08:32N 44°24' E 008°53'0 0.0
2016-May-13 07:32N 44°24' E 008°53'0 0.0
2016-May-13 06:32N 44°24' E 008°53'0 0.0
2016-May-13 04:29N 44°24' E 008°53'0 0.0
2016-May-13 03:29N 44°24' E 008°53'0 0.0
2016-May-13 02:29N 44°24' E 008°53'  

Dump ship's entire track history